createdAt,value
2023-02-24T00:01:10.218Z,3.84
2023-02-24T00:06:17.730Z,3.85
2023-02-24T00:11:25.243Z,3.86
2023-02-24T00:16:34.248Z,3.87
2023-02-24T00:21:42.896Z,3.88
2023-02-24T00:26:56.465Z,3.87
2023-02-24T00:32:07.511Z,3.85
2023-02-24T00:37:15.827Z,3.84
2023-02-24T00:42:25.205Z,3.82
2023-02-24T00:47:39.261Z,3.79
2023-02-24T00:52:46.672Z,3.77
2023-02-24T00:57:55.130Z,3.75
2023-02-24T01:03:03.536Z,3.74
2023-02-24T01:08:12.093Z,3.73
2023-02-24T01:13:20.752Z,3.72
2023-02-24T01:18:31.624Z,3.71
2023-02-24T01:23:40.771Z,3.71
2023-02-24T01:28:49.892Z,3.71
2023-02-24T01:33:58.680Z,3.72
2023-02-24T01:39:11.472Z,3.73
2023-02-24T01:44:52.507Z,3.75
2023-02-24T01:50:01.140Z,3.77
2023-02-24T01:55:14.757Z,3.80
2023-02-24T02:00:38.319Z,3.82
2023-02-24T02:05:48.877Z,3.84
2023-02-24T02:11:00.059Z,3.86
2023-02-24T02:16:31.913Z,3.88
2023-02-24T02:22:29.185Z,3.91
2023-02-24T02:28:07.500Z,3.95
2023-02-24T02:34:00.508Z,3.97
2023-02-24T02:39:16.332Z,4.00
2023-02-24T02:44:35.015Z,4.03
2023-02-24T02:49:47.276Z,4.05
2023-02-24T02:55:01.796Z,4.07
2023-02-24T03:00:21.997Z,4.09
2023-02-24T03:05:37.625Z,4.11
2023-02-24T03:10:51.557Z,4.14
2023-02-24T03:16:02.971Z,4.17
2023-02-24T03:21:18.292Z,4.20
2023-02-24T03:26:32.080Z,4.22
2023-02-24T03:31:48.291Z,4.23
2023-02-24T03:36:56.849Z,4.25
2023-02-24T03:42:10.393Z,4.26
2023-02-24T03:47:20.865Z,4.26
2023-02-24T03:52:42.769Z,4.26
2023-02-24T03:58:05.994Z,4.27
2023-02-24T04:03:33.385Z,4.28
2023-02-24T04:09:01.713Z,4.29
2023-02-24T04:14:14.711Z,4.30
2023-02-24T04:19:28.176Z,4.31
2023-02-24T04:24:37.150Z,4.33
2023-02-24T04:29:50.512Z,4.34
2023-02-24T04:35:05.485Z,4.36
2023-02-24T04:40:18.102Z,4.37
2023-02-24T04:45:28.761Z,4.38
2023-02-24T04:50:39.051Z,4.40
2023-02-24T04:55:49.279Z,4.41
2023-02-24T05:00:57.734Z,4.42
2023-02-24T05:06:06.770Z,4.44
2023-02-24T05:11:18.986Z,4.45
2023-02-24T05:16:29.279Z,4.47
2023-02-24T05:21:37.629Z,4.50
2023-02-24T05:26:45.847Z,4.52
2023-02-24T05:31:54.850Z,4.54
2023-02-24T05:37:10.787Z,4.57
2023-02-24T05:42:19.874Z,4.59
2023-02-24T05:47:28.821Z,4.62
2023-02-24T05:52:37.695Z,4.65
2023-02-24T05:57:46.114Z,4.67
2023-02-24T06:02:54.166Z,4.71
2023-02-24T06:08:06.535Z,4.75
2023-02-24T06:13:12.708Z,4.79
2023-02-24T06:18:21.963Z,4.82
2023-02-24T06:23:29.399Z,4.86
2023-02-24T06:28:36.787Z,4.89
2023-02-24T06:33:45.511Z,4.92
2023-02-24T06:38:54.837Z,4.95
2023-02-24T06:44:03.175Z,4.97
2023-02-24T06:49:12.016Z,5.00
2023-02-24T06:54:22.684Z,5.04
2023-02-24T06:59:31.295Z,5.07
2023-02-24T07:04:44.288Z,5.11
2023-02-24T07:09:52.447Z,5.14
2023-02-24T07:15:00.838Z,5.17
2023-02-24T07:20:26.473Z,5.21
2023-02-24T07:25:35.870Z,5.24
2023-02-24T07:30:46.588Z,5.27
2023-02-24T07:35:56.877Z,5.31
2023-02-24T07:41:07.099Z,5.35
2023-02-24T07:46:19.782Z,5.39
2023-02-24T07:51:29.927Z,5.43
2023-02-24T07:56:48.093Z,5.46
2023-02-24T08:01:57.403Z,5.50
2023-02-24T08:07:14.998Z,5.54
2023-02-24T08:12:29.245Z,5.57
2023-02-24T08:17:40.826Z,5.60
2023-02-24T08:22:52.554Z,5.64
2023-02-24T08:28:09.800Z,5.66
2023-02-24T08:33:24.616Z,5.68
2023-02-24T08:38:50.948Z,5.69
2023-02-24T08:43:59.447Z,5.71
2023-02-24T08:49:11.331Z,5.72
2023-02-24T08:54:27.738Z,5.74
2023-02-24T08:59:39.831Z,5.75
2023-02-24T09:04:49.360Z,5.76
2023-02-24T09:09:57.970Z,5.77
2023-02-24T09:15:09.021Z,5.79
2023-02-24T09:20:38.762Z,5.81
2023-02-24T09:25:50.066Z,5.83
2023-02-24T09:31:00.836Z,5.85
2023-02-24T09:36:20.722Z,5.88
2023-02-24T09:41:54.539Z,5.91
2023-02-24T09:47:09.451Z,5.96
2023-02-24T09:52:20.265Z,6.00
2023-02-24T09:57:38.800Z,6.04
2023-02-24T10:03:00.520Z,6.07
2023-02-24T10:08:16.041Z,6.10
2023-02-24T10:13:33.204Z,6.13
2023-02-24T10:18:48.793Z,6.16
2023-02-24T10:24:14.786Z,6.19
2023-02-24T10:29:32.867Z,6.23
2023-02-24T10:34:45.096Z,6.26
2023-02-24T10:39:52.079Z,6.29
2023-02-24T10:45:18.803Z,6.34
2023-02-24T10:50:32.311Z,6.39
2023-02-24T10:55:59.408Z,6.45
2023-02-24T11:01:19.074Z,6.53
2023-02-24T11:06:51.676Z,6.60
2023-02-24T11:12:23.239Z,6.67
2023-02-24T11:17:35.101Z,6.74
2023-02-24T11:22:46.125Z,6.79
2023-02-24T11:27:56.579Z,6.83
2023-02-24T11:33:26.657Z,6.85
2023-02-24T11:38:44.043Z,6.87
2023-02-24T11:44:00.162Z,6.89
2023-02-24T11:49:22.969Z,6.90
2023-02-24T11:54:46.878Z,6.90
2023-02-24T12:00:05.265Z,6.90
2023-02-24T12:05:21.279Z,6.91
2023-02-24T12:10:33.850Z,6.90
2023-02-24T12:15:47.154Z,6.91
2023-02-24T12:21:02.623Z,6.91
2023-02-24T12:26:23.204Z,6.91
2023-02-24T12:31:39.438Z,6.90
2023-02-24T12:37:02.349Z,6.90
2023-02-24T12:42:22.017Z,6.89
2023-02-24T12:47:41.515Z,6.88
2023-02-24T12:53:03.045Z,6.86
2023-02-24T12:58:16.115Z,6.84
2023-02-24T13:03:41.750Z,6.81
2023-02-24T13:08:59.802Z,6.78
2023-02-24T13:14:16.488Z,6.75
2023-02-24T13:19:30.942Z,6.69
2023-02-24T13:24:40.546Z,6.64
2023-02-24T13:29:57.701Z,6.57
2023-02-24T13:35:08.090Z,6.50
2023-02-24T13:40:28.625Z,6.43
2023-02-24T13:45:40.275Z,6.36
2023-02-24T13:51:22.431Z,6.30
2023-02-24T13:56:34.706Z,6.23
2023-02-24T14:01:59.657Z,6.16
2023-02-24T14:07:11.756Z,6.07
2023-02-24T14:12:25.352Z,5.95
2023-02-24T14:17:38.144Z,5.85
2023-02-24T14:22:54.370Z,5.74
2023-02-24T14:28:03.922Z,5.65
2023-02-24T14:33:24.907Z,5.55
2023-02-24T14:38:39.176Z,5.44
2023-02-24T14:43:48.303Z,5.33
2023-02-24T14:48:58.886Z,5.21
2023-02-24T14:54:13.924Z,5.09
2023-02-24T14:59:33.048Z,4.97
2023-02-24T15:04:44.940Z,4.87
2023-02-24T15:09:54.813Z,4.78
2023-02-24T15:15:08.485Z,4.70
2023-02-24T15:20:38.102Z,4.62
2023-02-24T15:25:48.696Z,4.55
2023-02-24T15:31:05.107Z,4.48
2023-02-24T15:36:20.926Z,4.40
2023-02-24T15:41:39.884Z,4.34
2023-02-24T15:46:48.093Z,4.28
2023-02-24T15:52:02.788Z,4.22
2023-02-24T15:57:16.837Z,4.16
2023-02-24T16:02:27.074Z,4.12
2023-02-24T16:07:39.030Z,4.09
2023-02-24T16:12:51.842Z,4.05
2023-02-24T16:18:00.309Z,4.02
2023-02-24T16:23:09.121Z,3.99
2023-02-24T16:28:20.675Z,3.95
2023-02-24T16:33:29.608Z,3.93
2023-02-24T16:38:38.267Z,3.91
2023-02-24T16:43:46.206Z,3.89
2023-02-24T16:48:55.460Z,3.87
2023-02-24T16:54:04.023Z,3.84
2023-02-24T16:59:12.065Z,3.83
2023-02-24T17:04:20.970Z,3.80
2023-02-24T17:09:30.389Z,3.78
2023-02-24T17:14:41.742Z,3.77
2023-02-24T17:19:49.701Z,3.75
2023-02-24T17:24:57.224Z,3.73
2023-02-24T17:30:05.641Z,3.71
2023-02-24T17:35:14.272Z,3.70
2023-02-24T17:40:23.310Z,3.69
2023-02-24T17:45:30.686Z,3.68
2023-02-24T17:50:38.119Z,3.67
2023-02-24T17:56:01.508Z,3.67
2023-02-24T18:01:12.924Z,3.67
2023-02-24T18:06:21.836Z,3.65
2023-02-24T18:11:30.382Z,3.63
2023-02-24T18:16:39.705Z,3.60
2023-02-24T18:21:48.045Z,3.56
2023-02-24T18:26:56.299Z,3.50
2023-02-24T18:32:05.235Z,3.45
2023-02-24T18:37:13.630Z,3.41
2023-02-24T18:42:21.096Z,3.36
2023-02-24T18:47:28.828Z,3.30
2023-02-24T18:52:37.062Z,3.27
2023-02-24T18:57:45.723Z,3.23
2023-02-24T19:02:54.831Z,3.19
2023-02-24T19:08:03.748Z,3.15
2023-02-24T19:13:12.817Z,3.11
2023-02-24T19:18:21.235Z,3.08
2023-02-24T19:23:30.560Z,3.06
2023-02-24T19:28:39.489Z,3.02
2023-02-24T19:33:48.496Z,3.00
2023-02-24T19:38:57.262Z,2.97
2023-02-24T19:44:06.018Z,2.95
2023-02-24T19:49:14.512Z,2.93
2023-02-24T19:54:23.452Z,2.90
2023-02-24T19:59:32.186Z,2.89
2023-02-24T20:04:41.019Z,2.85
2023-02-24T20:09:49.813Z,2.82
2023-02-24T20:14:59.035Z,2.80
2023-02-24T20:20:08.348Z,2.77
2023-02-24T20:25:18.512Z,2.74
2023-02-24T20:30:27.225Z,2.70
2023-02-24T20:35:35.670Z,2.67
2023-02-24T20:40:45.274Z,2.64
2023-02-24T20:45:53.839Z,2.62
2023-02-24T20:51:09.730Z,2.59
2023-02-24T20:56:22.394Z,2.57
2023-02-24T21:01:32.468Z,2.55
2023-02-24T21:06:41.031Z,2.54
2023-02-24T21:11:50.393Z,2.53
2023-02-24T21:16:58.850Z,2.52
2023-02-24T21:22:07.652Z,2.51
2023-02-24T21:27:16.042Z,2.51
2023-02-24T21:32:24.438Z,2.49
2023-02-24T21:37:35.112Z,2.49
2023-02-24T21:42:44.984Z,2.48
2023-02-24T21:47:54.319Z,2.47
2023-02-24T21:53:02.758Z,2.46
2023-02-24T21:58:10.929Z,2.45
2023-02-24T22:03:18.561Z,2.45
2023-02-24T22:08:26.041Z,2.44
2023-02-24T22:13:34.395Z,2.43
2023-02-24T22:18:42.862Z,2.42
2023-02-24T22:23:53.209Z,2.41
2023-02-24T22:29:02.705Z,2.39
2023-02-24T22:34:11.109Z,2.38
2023-02-24T22:39:19.779Z,2.38
2023-02-24T22:44:28.220Z,2.39
2023-02-24T22:49:37.000Z,2.39
2023-02-24T22:54:45.899Z,2.40
2023-02-24T22:59:54.686Z,2.40
2023-02-24T23:05:03.915Z,2.41
2023-02-24T23:10:14.294Z,2.42
2023-02-24T23:15:23.357Z,2.42
2023-02-24T23:20:32.275Z,2.44
2023-02-24T23:25:42.697Z,2.45
2023-02-24T23:30:51.747Z,2.47
2023-02-24T23:36:04.840Z,2.48
2023-02-24T23:41:13.729Z,2.50
2023-02-24T23:46:23.466Z,2.52
2023-02-24T23:51:47.125Z,2.53
2023-02-24T23:56:57.449Z,2.55
